Upernavik, Greenland
Current Conditions -  °F | °C
As of 7:50 PM on Wednesday 22 Oct 2014 (Local Time) from BGJN Reporting Station
Broken Clouds Broken Clouds  
Wind Chill: 16°   Ceiling: 7000
Heat Index: 27°   Visibility: 6mi
Dew Point: 18°   Wind: 12mph
Humidity: 69%   Direction: 90°E
Pressure: 29.65"   Gusts: NA
Location:  72.79°N, 56.15°W
Report Text: BGJN 222150Z 09010KT 9999 FEW010 SCT030 BKN070 M03/M08 Q1004
Loading
Personal Weather Stations






























Interactive Weather Map
Tropical Storm Tracking
New forecast layout! Learn more

10-Day Weather Forecast

Advertisements
Track Severe Weather on mobile